Elmira, Indiana
Current Conditions -  °F | °C
As of 9:34 AM on Saturday 25 Oct 2014 (Local Time) from KIRS Reporting Station
Haze Haze  
Wind Chill: 55°   Ceiling: 800
Heat Index: 55°   Visibility: 3mi
Dew Point: 54°   Wind: 9mph
Humidity: 94%   Direction: 250°WSW
Pressure: 29.89"   Gusts: NA
Location:  41.6561°N, 85.3683°W
Report Text: KIRS 251334Z AUTO 25008KT 3SM BR OVC008 13/12 A2989 RMK AO2
Loading
Personal Weather Stations






























Interactive Weather Map
Tropical Storm Tracking
New forecast layout! Learn more

10-Day Weather Forecast

Advertisements
Track Severe Weather on mobile